Аэропорт
Ош (UCFO)

 UCFO / OSS
ЗЦ Центральная Азия
Ош (UCFO)
Ош (UCFO)
 40.60900, 72.79330  / 2927 ft

 UCFO 300600Z VRB01MPS 9000 NSC 11/M07 Q1028 R12/0///95 NOSIG
 TAF UCFO 292244Z 3000/3024 31003G08MPS 9999 NSC TEMPO 3000/3005 2000 BR FU FEW050 BECMG 3012/3014 17005MPS 3000 BR
показать схемы



2020 © VATRUS division (Privacy Policy)